Terminal Aerodrome Forecast
Issued by NWS Grand Rapids, MI

Home | Current Version | Previous Version | Text Only | Print | Product List | Glossary On
Versions: 1 2 3 4 5 6 7 8 9 10 11 12 13 14 15
283
FTUS43 KGRR 250540
TAFGRR
TAF
KGRR 250540Z 2506/2606 22012KT P6SM OVC060
     FM250630 27012KT P6SM VCSH OVC025
     FM251300 29012G22KT P6SM VCSH OVC025
     FM251600 29012G22KT P6SM VCSH OVC035
     FM260100 32008KT P6SM FEW035=

USA.gov is the U.S. government's official web portal to all federal, state and local government web resources and services.